Main page
Satellite images 15-day forecastsClimateMarine weather Cyclones Lightning AirportsFAQ Newsletter About
Weather : Europe Africa North America South America Asia Australia-Oceania Others
Languages Contact

Nice, France

Côte d'Azur

latitude: 43-39N, longitude: 007-12E, elevation: 4 m


METAR: LFMN 311200Z 16004KT 9999 FEW030 20/13 Q1025 NOSIG
TAF: LFMN 311100Z 3112/0118 16008KT 9999 FEW030 BECMG 3117/3119 34010KT FEW020 BECMG 0109/0111 17008KT FEW040

Time: 13:34 (12:34 UTC)

Current weather observation

The report was made 34 minutes ago, at 12:00 UTC
Wind 4 kt from the South/Southeast
Temperature 20°C
Humidity 64%
Pressure 1025 hPa
Visibility 10 km or more
Few clouds at a height of 3000 ft

Change units

Forecast

The report was made 1 hour and 34 minutes ago, at 11:00 UTC
Forecast valid from 31 at 12 UTC to 01 at 18 UTC
Wind 8 kt from the South/Southeast
Visibility 10 km or more
Few clouds at a height of 3000 ft
Becoming
from 31 at 17 UTC to 31 at 19 UTC
Wind 10 kt from the North/Northwest
Few clouds at a height of 2000 ft
Becoming
from 01 at 09 UTC to 01 at 11 UTC
Wind 8 kt from the South
Few clouds at a height of 4000 ft
The information on this site is subject to a disclaimer
Weather : Europe Africa North America South America Asia Australia-Oceania Others
Satellite images 15-day forecastsClimateMarine weather Cyclones Lightning AirportsFAQ Languages Contact Newsletter About